Latest Coastal Weather Observations for Sydney Airport

IDN60701

Issued at 9:01 pm EDT Wednesday 18 January 2017 (issued every 10 minutes, with the page automatically refreshed every 10 minutes)

About coastal observations | Map of coastal stations | Coastal observations for NSW | Marine services | Other Formats
Station Details ID: 066037 Name: SYDNEY AIRPORT AMO Lat: -33.95 Lon: 151.17 Height: 6.0 m
Data from the previous 72 hours. | See also: Recent months at Sydney Airport
Date/Time
EDT
Temp
°C
Wind Pressure Rain since
9am
mm
Weather Cloud Vis
km
Sea
Height
m
Swell
Dir  Spd
kts
Gust
kts
hPa Trend Height
m
Period
s
Dir
18/08:30pm 22.4 S 18 23 1013.6 - 0.0 - Partly cloudy 10 - - - -
18/08:00pm 22.7 S 19 24 1012.9 - 0.0 - Partly cloudy 10 - - - -
18/07:30pm 22.8 S 21 27 1011.9 - 0.0 - Partly cloudy 10 - - - -
18/07:00pm 22.8 SSE 21 27 1011.3 - 0.0 - Mostly clear 10 - - - -
18/06:30pm 23.2 SSE 22 28 1010.5 - 0.0 - Mostly clear 10 - - - -
18/06:00pm 24.0 SSE 22 30 1009.7 R 0.0 Fine Mostly cloudy 15 - - - -
18/05:30pm 24.0 SSE 22 28 1009.0 - 0.0 - Mostly clear 10 - - - -
18/05:00pm 23.8 S 24 31 1008.3 - 0.0 - Partly cloudy 10 - - - -
18/04:30pm 23.9 S 22 28 1008.4 - 0.0 - Mostly clear 10 - - - -
18/04:00pm 24.7 S 24 31 1007.5 - 0.0 - Mostly clear 10 - - - -
18/03:30pm 25.7 S 18 23 1007.0 - 0.0 - Mostly clear 10 - - - -
18/03:00pm 25.1 S 19 23 1006.7 R 0.0 Fine Mostly clear 20 - - - -
18/02:30pm 25.4 S 18 22 1006.9 - 0.0 - Mostly clear 10 - - - -
18/02:00pm 25.7 S 18 23 1006.3 - 0.0 - Mostly clear 10 - - - -
18/01:30pm 26.0 S 18 21 1006.1 - 0.0 - Mostly clear 10 - - - -
18/01:00pm 26.2 S 16 19 1006.1 - 0.0 - Mostly clear 10 - - - -
18/12:30pm 27.4 S 14 18 1006.1 - 0.0 - Mostly clear 10 - - - -
18/12:00pm 26.2 S 15 19 1006.0 R 0.0 Fine Mostly clear 25 - - - -
18/11:30am 26.0 S 17 21 1006.0 - 0.0 - - 10 - - - -
18/11:00am 26.3 SSE 17 22 1006.2 - 0.0 - - 10 - - - -
18/10:30am 25.3 S 18 22 1006.3 - 0.0 - - 10 - - - -
18/10:00am 25.8 S 23 28 1006.0 - 0.0 - - 10 - - - -
18/09:30am 26.1 S 25 33 1005.8 - 0.0 - - 10 - - - -
18/09:17am 30.9 SW 16 30 1005.9 - 0.0 - - 10 - - - -
18/09:00am 37.2 WNW 17 22 1005.4 R 0.0 Fine Mostly clear 40 - - - -
18/08:30am 36.5 NW 14 18 1005.4 - 0.0 - - 10 - - - -
18/08:00am 35.3 NW 13 17 1005.2 - 0.0 - - 10 - - - -
18/07:30am 34.4 NNW 14 17 1004.7 - 0.0 - - 10 - - - -
18/07:00am 33.6 NNW 13 16 1004.6 - 0.0 - - 10 - - - -
18/06:30am 32.7 NW 10 13 1004.3 - 0.0 - - 10 - - - -
18/06:00am 32.1 NW 10 12 1004.0 S 0.0 Fine Mostly clear 30 - - - -
18/05:30am 31.0 NW 9 10 1003.6 - 0.0 - - 10 - - - -
18/05:00am 29.8 NW 9 14 1003.6 - 0.4 - - 10 - - - -
18/04:30am 29.0 NW 8 9 1003.4 - 0.4 - - 10 - - - -
18/04:00am 29.4 NNW 6 7 1003.4 - 0.4 - - 10 - - - -
18/03:30am 29.1 NW 4 7 1003.5 - 0.4 - - 10 - - - -
18/03:00am 29.6 NNW 4 5 1003.7 F 0.4 Fine Mostly clear 30 - - - -
18/02:30am 29.5 N 4 5 1004.1 - 0.4 - - 10 - - - -
18/02:00am 26.5 CALM 0 0 1004.4 - 0.4 - - 10 - - - -
18/01:30am 26.7 CALM 0 0 1004.7 - 0.4 - - 10 - - - -
18/01:00am 26.9 CALM 0 2 1005.2 - 0.4 - - 10 - - - -
18/12:30am 27.1 NW 3 4 1005.5 - 0.4 - - 10 - - - -
18/12:00am 28.8 N 3 4 1005.9 F 0.4 Fine Partly cloudy 30 - - - -
 
Date/Time
EDT
Temp
°C
Wind Pressure Rain since
9am
mm
Weather Cloud Vis
km
Sea
Height
m
Swell
Dir  Spd
kts
Gust
kts
hPa Trend Height
m
Period
s
Dir
17/11:30pm 28.8 NNE 4 5 1006.1 - 0.4 - - 10 - - - -
17/11:00pm 28.2 NE 10 13 1006.4 - 0.4 - - 10 - - - -
17/10:30pm 28.5 ENE 14 16 1006.8 - 0.4 - - 10 - - - -
17/10:00pm 30.9 E 13 14 1007.4 - 0.4 - - 10 - - - -
17/09:30pm 32.1 ESE 6 10 1007.6 - 0.4 - Partly cloudy 10 - - - -
17/09:16pm 32.2 S 8 15 1007.7 - 0.4 - Partly cloudy 10 - - - -
17/09:00pm 34.7 ENE 11 22 1007.3 R 0.4 Distant precip. Mostly cloudy 30 - - - -
17/08:30pm 32.5 NNE 18 21 1006.6 - 0.4 - Partly cloudy 10 - - - -
17/08:00pm 32.2 NNE 20 26 1006.3 - 0.4 - Partly cloudy 10 - - - -
17/07:37pm 32.5 NNE 20 31 1006.2 - 0.4 - Partly cloudy 10 - - - -
17/07:30pm 33.0 NNE 19 24 1006.1 - 0.4 - - 10 - - - -
17/07:00pm 33.5 NNE 19 25 1005.9 - 0.4 - - 10 - - - -
17/06:30pm 34.4 NNE 21 25 1005.7 - 0.4 - - 10 - - - -
17/06:00pm 35.0 NNE 19 23 1005.6 F 0.4 Fine Mostly clear 30 - - - -
17/05:30pm 36.2 NE 19 24 1005.8 - 0.4 - - 10 - - - -
17/05:00pm 36.4 NNE 22 26 1006.1 - 0.0 - - 10 - - - -
17/04:30pm 35.5 NNE 22 26 1006.4 - 0.0 - - 10 - - - -
17/04:00pm 34.3 NNE 21 28 1007.0 - 0.4 - Partly cloudy 10 - - - -
17/03:30pm 33.1 NNE 19 25 1007.4 - 0.4 - Partly cloudy 10 - - - -
17/03:00pm 35.2 NE 16 18 1007.6 F 0.0 Fine Mostly clear 25 - - - -
17/02:30pm 35.5 NE 16 19 1008.1 - 0.4 - - 10 - - - -
17/02:00pm 35.6 NE 13 15 1008.6 - 0.4 - - 10 - - - -
17/01:30pm 36.0 NE 11 14 1009.1 - 0.4 - - 10 - - - -
17/01:00pm 35.8 NE 10 13 1009.8 - 0.0 - - 10 - - - -
17/12:30pm 34.9 NE 10 13 1010.4 - 0.0 - - 10 - - - -
17/12:00pm 34.3 NNE 6 9 1010.9 F 0.0 Haze Mostly clear 20 - - - -
17/11:30am 33.3 NNE 7 9 1011.3 - 0.4 - - 10 - - - -
17/11:00am 32.7 N 4 5 1011.9 - 0.0 - - 10 - - - -
17/10:30am 32.9 N 8 12 1012.3 - 0.2 - - 10 - - - -
17/10:00am 30.3 NNW 6 12 1012.6 - 0.0 - - 10 - - - -
17/09:30am 28.5 WNW 7 9 1013.0 - 0.0 - - 10 - - - -
17/09:00am 27.4 NW 7 9 1013.4 F 0.0 Haze Mostly clear 15 - - - -
17/08:30am 25.8 NW 8 10 1013.8 - 0.0 - - 10 - - - -
17/08:00am 24.5 NW 7 8 1013.9 - 0.0 - - 10 - - - -
17/07:30am 24.1 NW 6 8 1013.8 - 0.0 - - 10 - - - -
17/07:00am 23.0 N 7 8 1013.7 - 0.0 - - 10 - - - -
17/06:30am 22.8 N 6 7 1013.4 - 0.0 - - 10 - - - -
17/06:00am 22.5 NW 7 8 1013.5 F 0.0 Haze Mostly clear 15 - - - -
17/05:30am 22.3 NNE 5 7 1013.0 - 0.0 - - 10 - - - -
17/05:00am 21.5 ENE 4 5 1012.9 - 0.0 - - 10 - - - -
17/04:30am 21.8 NNE 5 6 1012.8 - 0.0 - - 10 - - - -
17/04:00am 21.7 NNE 5 6 1012.9 - 0.0 - - 10 - - - -
17/03:30am 21.4 NE 4 5 1013.2 - 0.0 - - 10 - - - -
17/03:00am 21.6 NE 5 6 1013.4 F 0.0 Haze Clear 16 - - - -
17/02:30am 21.8 NE 5 6 1013.6 - 0.0 - - 10 - - - -
17/02:00am 21.8 ENE 7 7 1013.9 - 0.0 - - 10 - - - -
17/01:30am 23.2 NE 5 7 1014.2 - 0.0 - - 10 - - - -
17/01:00am 22.7 NNE 5 6 1014.5 - 0.0 - - 10 - - - -
17/12:30am 23.5 NNE 9 11 1014.7 - 0.0 - Mostly clear 10 - - - -
17/12:00am 23.5 NNE 13 19 1014.9 S 0.0 Haze Mostly clear 18 - - - -
 
Date/Time
EDT
Temp
°C
Wind Pressure Rain since
9am
mm
Weather Cloud Vis
km
Sea
Height
m
Swell
Dir  Spd
kts
Gust
kts
hPa Trend Height
m
Period
s
Dir
16/11:30pm 23.6 NNE 13 17 1015.0 - 0.0 - Partly cloudy 10 - - - -
16/11:00pm 23.7 NNE 14 18 1015.1 - 0.0 - Mostly clear 10 - - - -
16/10:30pm 23.9 NNE 14 19 1015.3 - 0.0 - Mostly clear 10 - - - -
16/10:00pm 24.0 NNE 16 21 1015.1 - 0.0 - - 10 - - - -
16/09:30pm 23.8 NNE 16 22 1014.8 - 0.0 - - 10 - - - -
16/09:00pm 24.3 NNE 19 27 1014.5 R 0.0 Haze Clear 20 - - - -
16/08:30pm 24.6 NNE 20 29 1014.2 - 0.0 - - 10 - - - -
16/08:26pm 24.5 NNE 19 29 1014.2 - 0.0 - - 10 - - - -
16/08:00pm 24.8 NE 21 27 1013.9 - 0.0 - - 10 - - - -
16/07:30pm 25.4 NE 20 27 1013.7 - 0.0 - - 10 - - - -
16/07:09pm 25.6 NNE 20 30 1013.6 - 0.0 - - 10 - - - -
16/07:00pm 25.3 NNE 22 28 1013.5 - 0.0 - - 10 - - - -
16/06:43pm 25.9 NE 23 33 1013.3 - 0.0 - - 10 - - - -
16/06:30pm 26.2 NE 23 31 1013.2 - 0.0 - - 10 - - - -
16/06:00pm 26.5 NE 25 30 1012.9 F 0.0 Fine Clear 25 - - - -
16/05:30pm 27.5 NE 23 30 1012.9 - 0.0 - - 10 - - - -
16/05:00pm 27.7 NE 25 31 1013.2 - 0.0 - - 10 - - - -
16/04:30pm 28.6 NE 23 29 1013.4 - 0.0 - - 10 - - - -
16/04:00pm 28.7 NE 22 26 1013.5 - 0.0 - - 10 - - - -
16/03:30pm 28.1 NE 22 29 1013.6 - 0.0 - - 10 - - - -
16/03:00pm 28.9 NE 22 28 1013.8 F 0.0 Fine Clear 20 - - - -
16/02:30pm 28.2 NE 23 29 1013.9 - 0.0 - - 10 - - - -
16/02:00pm 29.2 NNE 20 26 1014.2 - 0.0 - Mostly clear 10 - - - -
16/01:30pm 28.9 NNE 21 25 1014.6 - 0.0 - Mostly clear 10 - - - -
16/01:10pm 27.8 NE 19 29 1014.9 - 0.0 - Mostly clear 10 - - - -
16/01:00pm 28.2 NE 21 26 1015.0 - 0.0 - Mostly clear 10 - - - -
16/12:30pm 27.7 NE 18 23 1015.3 - 0.0 - Mostly clear 10 - - - -
16/12:00pm 28.1 NE 18 22 1015.6 F 0.0 Haze Mostly clear 15 - - - -
16/11:30am 27.9 NNE 17 21 1015.9 - 0.0 - Mostly clear 10 - - - -
16/11:00am 26.5 NE 17 19 1016.3 - 0.0 - Mostly clear 10 - - - -
16/10:30am 25.5 NE 16 20 1016.4 - 0.0 - Partly cloudy 10 - - - -
16/10:00am 26.5 NNE 12 17 1016.7 - 0.0 - Partly cloudy 10 - - - -
16/09:30am 26.3 NNE 13 17 1016.8 - 0.0 - Partly cloudy 10 - - - -
16/09:00am 25.5 N 14 18 1016.9 F 0.0 Haze Partly cloudy 15 - - - -
16/08:30am 25.4 N 12 17 1017.1 - 0.0 - Mostly clear 10 - - - -
16/08:00am 24.7 NNW 9 12 1017.1 - 0.0 - Mostly clear 10 - - - -
16/07:30am 23.8 NNW 8 10 1017.0 - 0.0 - Mostly clear 10 - - - -
16/07:00am 23.1 N 6 9 1016.7 - 0.0 - - 10 - - - -
16/06:30am 23.1 NNE 7 10 1016.5 - 0.0 - Mostly clear 10 - - - -
16/06:00am 22.5 N 6 8 1016.2 F 0.0 Haze Mostly clear 16 - - - -
16/05:30am 22.2 NNW 7 8 1016.1 - 0.0 - Mostly clear 10 - - - -
16/05:00am 22.7 N 6 7 1016.1 - 0.0 - Mostly clear 10 - - - -
16/04:30am 22.7 N 7 10 1015.9 - 0.0 - Mostly clear 10 - - - -
16/04:00am 22.8 NNE 12 15 1015.9 - 0.0 - Mostly clear 10 - - - -
16/03:30am 23.2 NNE 9 11 1016.1 - 0.0 - Mostly clear 10 - - - -
16/03:00am 23.0 NNE 9 11 1016.3 R 0.0 Haze Mostly cloudy 16 - - - -
16/02:30am 23.2 NNE 7 10 1016.6 - 0.0 - Mostly clear 10 - - - -
16/02:00am 23.3 NNE 8 11 1016.9 - 0.0 - Mostly clear 10 - - - -
16/01:30am 23.5 NNE 10 12 1016.9 - 0.0 - Mostly clear 10 - - - -
16/01:00am 23.4 NNE 10 13 1017.0 - 0.0 - Partly cloudy 10 - - - -
16/12:30am 23.1 NNE 10 13 1017.0 - 0.0 - Mostly clear 10 - - - -
16/12:00am 23.5 NNE 8 9 1017.0 R 0.0 Haze Mostly cloudy 16 - - - -
 
Date/Time
EDT
Temp
°C
Wind Pressure Rain since
9am
mm
Weather Cloud Vis
km
Sea
Height
m
Swell
Dir  Spd
kts
Gust
kts
hPa Trend Height
m
Period
s
Dir
15/11:30pm 23.8 NNE 9 13 1016.8 - 0.0 - Mostly clear 10 - - - -
15/11:00pm 23.8 NE 9 12 1016.9 - 0.0 - Mostly clear 10 - - - -
15/10:30pm 23.3 ENE 11 14 1016.8 - 0.0 - Mostly clear 10 - - - -
15/10:00pm 23.2 ENE 12 16 1016.7 - 0.0 - Mostly clear 10 - - - -
15/09:30pm 22.9 NE 10 13 1016.6 - 0.0 - Mostly clear 10 - - - -

Other Formats:

Comma delimited format used in spreadsheet applications
http://www.bom.gov.au/fwo/IDN60701/IDN60701.94767.axf

JavaScript Object Notation format (JSON) in row-major order
http://www.bom.gov.au/fwo/IDN60701/IDN60701.94767.json